createdAt,value
2023-08-14T00:00:51.019Z,76.31
2023-08-14T00:03:17.708Z,76.64
2023-08-14T00:05:44.243Z,76.64
2023-08-14T00:08:10.893Z,78.14
2023-08-14T00:10:37.419Z,82.26
2023-08-14T00:13:04.208Z,79.10
2023-08-14T00:15:30.858Z,76.24
2023-08-14T00:17:57.442Z,77.21
2023-08-14T00:20:23.922Z,81.64
2023-08-14T00:22:50.370Z,81.97
2023-08-14T00:25:16.927Z,80.20
2023-08-14T00:27:43.458Z,80.66
2023-08-14T00:30:10.116Z,80.18
2023-08-14T00:32:36.777Z,79.41
2023-08-14T00:35:03.771Z,79.61
2023-08-14T00:37:41.396Z,79.39
2023-08-14T00:40:08.560Z,79.33
2023-08-14T00:42:35.041Z,78.89
2023-08-14T00:45:01.541Z,79.14
2023-08-14T00:47:28.050Z,78.59
2023-08-14T00:49:54.651Z,78.84
2023-08-14T00:52:21.162Z,79.64
2023-08-14T00:54:47.658Z,78.78
2023-08-14T00:57:14.277Z,78.68
2023-08-14T00:59:40.832Z,79.26
2023-08-14T01:02:07.371Z,79.07
2023-08-14T01:04:33.942Z,78.41
2023-08-14T01:07:02.759Z,79.09
2023-08-14T01:09:31.261Z,79.20
2023-08-14T01:12:08.530Z,79.86
2023-08-14T01:14:36.340Z,80.05
2023-08-14T01:17:09.907Z,80.09
2023-08-14T01:19:41.481Z,80.27
2023-08-14T01:22:17.775Z,80.65
2023-08-14T01:25:05.233Z,79.88
2023-08-14T01:27:31.863Z,80.92
2023-08-14T01:29:59.993Z,81.22
2023-08-14T01:32:26.792Z,80.69
2023-08-14T01:34:56.005Z,80.82
2023-08-14T01:37:28.237Z,81.09
2023-08-14T01:40:08.263Z,80.69
2023-08-14T01:42:38.283Z,80.63
2023-08-14T01:45:17.366Z,81.15
2023-08-14T01:47:46.704Z,81.52
2023-08-14T01:50:17.612Z,81.22
2023-08-14T01:52:44.449Z,81.39
2023-08-14T01:55:10.927Z,81.66
2023-08-14T01:57:37.452Z,81.29
2023-08-14T02:00:06.491Z,81.48
2023-08-14T02:02:39.176Z,82.04
2023-08-14T02:05:05.887Z,82.20
2023-08-14T02:07:32.348Z,81.65
2023-08-14T02:09:58.813Z,81.75
2023-08-14T02:12:25.423Z,81.44
2023-08-14T02:14:51.973Z,82.13
2023-08-14T02:17:18.416Z,82.86
2023-08-14T02:19:44.863Z,82.79
2023-08-14T02:22:11.307Z,82.17
2023-08-14T02:24:37.787Z,82.29
2023-08-14T02:27:04.492Z,81.79
2023-08-14T02:29:33.568Z,81.58
2023-08-14T02:32:00.022Z,81.19
2023-08-14T02:34:35.083Z,81.58
2023-08-14T02:37:01.832Z,82.30
2023-08-14T02:39:28.360Z,82.19
2023-08-14T02:41:54.823Z,82.26
2023-08-14T02:44:21.280Z,82.05
2023-08-14T02:46:47.706Z,81.87
2023-08-14T02:49:14.166Z,81.73
2023-08-14T02:51:40.712Z,81.99
2023-08-14T02:54:07.285Z,82.00
2023-08-14T02:56:33.734Z,81.89
2023-08-14T02:59:00.179Z,82.34
2023-08-14T03:01:26.715Z,81.88
2023-08-14T03:03:53.200Z,82.27
2023-08-14T03:06:19.750Z,81.88
2023-08-14T03:08:46.230Z,82.10
2023-08-14T03:11:12.717Z,82.29
2023-08-14T03:13:40.203Z,82.06
2023-08-14T03:16:07.278Z,81.78
2023-08-14T03:18:33.746Z,81.98
2023-08-14T03:21:00.217Z,82.42
2023-08-14T03:23:26.716Z,82.58
2023-08-14T03:25:53.180Z,82.40
2023-08-14T03:28:19.756Z,82.59
2023-08-14T03:30:49.694Z,83.02
2023-08-14T03:33:17.180Z,83.57
2023-08-14T03:35:44.532Z,83.47
2023-08-14T03:38:13.976Z,83.60
2023-08-14T03:40:40.489Z,83.28
2023-08-14T03:43:06.937Z,83.17
2023-08-14T03:45:33.392Z,83.38
2023-08-14T03:47:59.897Z,82.73
2023-08-14T03:50:26.516Z,82.86
2023-08-14T03:52:53.866Z,83.66
2023-08-14T03:55:21.556Z,83.71
2023-08-14T03:57:48.018Z,84.43
2023-08-14T04:00:14.837Z,84.38
2023-08-14T04:02:42.702Z,84.25
2023-08-14T04:05:09.352Z,84.90
2023-08-14T04:07:35.830Z,85.74
2023-08-14T04:10:02.391Z,85.35
2023-08-14T04:12:28.833Z,85.89
2023-08-14T04:14:55.268Z,85.62
2023-08-14T04:17:21.762Z,85.86
2023-08-14T04:19:48.201Z,85.89
2023-08-14T04:22:14.653Z,86.02
2023-08-14T04:24:41.105Z,85.71
2023-08-14T04:27:07.559Z,86.00
2023-08-14T04:29:34.022Z,86.09
2023-08-14T04:32:00.500Z,86.24
2023-08-14T04:34:26.974Z,86.73
2023-08-14T04:36:55.056Z,86.12
2023-08-14T04:39:21.610Z,86.05
2023-08-14T04:41:48.084Z,86.79
2023-08-14T04:44:15.961Z,86.67
2023-08-14T04:46:57.497Z,86.43
2023-08-14T04:49:26.349Z,85.80
2023-08-14T04:51:52.828Z,85.89
2023-08-14T04:54:19.472Z,85.64
2023-08-14T04:56:46.025Z,85.44
2023-08-14T04:59:12.566Z,84.79
2023-08-14T05:01:39.106Z,85.08
2023-08-14T05:04:06.776Z,85.45
2023-08-14T05:06:33.365Z,85.51
2023-08-14T05:09:02.185Z,85.68
2023-08-14T05:11:31.508Z,85.14
2023-08-14T05:13:57.956Z,84.74
2023-08-14T05:16:26.163Z,84.42
2023-08-14T05:18:52.791Z,84.63
2023-08-14T05:21:19.237Z,84.02
2023-08-14T05:23:45.708Z,84.18
2023-08-14T05:26:12.176Z,84.16
2023-08-14T05:28:38.728Z,84.64
2023-08-14T05:31:08.492Z,84.47
2023-08-14T05:33:35.293Z,84.56
2023-08-14T05:36:01.770Z,84.04
2023-08-14T05:38:28.250Z,83.95
2023-08-14T05:40:54.730Z,84.61
2023-08-14T05:43:21.182Z,85.06
2023-08-14T05:45:47.737Z,85.02
2023-08-14T05:48:15.408Z,84.81
2023-08-14T05:50:42.371Z,84.90
2023-08-14T05:53:09.633Z,84.75
2023-08-14T05:55:40.859Z,85.20
2023-08-14T05:58:08.254Z,84.88
2023-08-14T06:00:36.539Z,84.86
2023-08-14T06:03:03.930Z,85.30
2023-08-14T06:05:30.575Z,85.30
2023-08-14T06:07:57.755Z,85.18
2023-08-14T06:10:24.459Z,84.85
2023-08-14T06:12:51.444Z,85.31
2023-08-14T06:15:22.345Z,84.89
2023-08-14T06:17:49.616Z,86.27
2023-08-14T06:20:16.854Z,86.11
2023-08-14T06:22:45.259Z,86.06
2023-08-14T06:25:13.104Z,85.97
2023-08-14T06:27:40.650Z,86.24
2023-08-14T06:30:11.785Z,86.00
2023-08-14T06:32:39.409Z,85.82
2023-08-14T06:35:07.322Z,86.51
2023-08-14T06:37:34.560Z,87.35
2023-08-14T06:40:01.014Z,87.99
2023-08-14T06:42:27.478Z,88.01
2023-08-14T06:44:53.972Z,87.67
2023-08-14T06:47:20.485Z,87.44
2023-08-14T06:49:46.967Z,87.61
2023-08-14T06:52:14.783Z,86.89
2023-08-14T06:54:41.305Z,87.03
2023-08-14T06:57:09.025Z,86.96
2023-08-14T06:59:36.066Z,86.95
2023-08-14T07:02:02.616Z,87.40
2023-08-14T07:04:29.151Z,87.50
2023-08-14T07:06:55.686Z,87.48
2023-08-14T07:09:22.235Z,87.50
2023-08-14T07:11:48.936Z,87.27
2023-08-14T07:14:15.396Z,86.55
2023-08-14T07:16:41.975Z,86.66
2023-08-14T07:19:08.521Z,86.35
2023-08-14T07:21:34.987Z,85.88
2023-08-14T07:24:01.609Z,85.57
2023-08-14T07:26:28.137Z,85.65
2023-08-14T07:28:54.600Z,85.70
2023-08-14T07:31:21.069Z,85.07
2023-08-14T07:33:47.555Z,84.78
2023-08-14T07:36:14.021Z,84.39
2023-08-14T07:38:40.445Z,83.52
2023-08-14T07:41:06.996Z,83.46
2023-08-14T07:43:33.456Z,82.64
2023-08-14T07:45:59.923Z,81.99
2023-08-14T07:48:26.445Z,81.63
2023-08-14T07:50:54.104Z,80.81
2023-08-14T07:53:20.610Z,80.34
2023-08-14T07:55:49.243Z,79.52
2023-08-14T07:58:16.477Z,78.56
2023-08-14T08:00:43.530Z,79.31
2023-08-14T08:03:10.206Z,78.43
2023-08-14T08:05:37.318Z,77.53
2023-08-14T08:08:04.507Z,76.59
2023-08-14T08:10:31.130Z,75.97
2023-08-14T08:12:57.784Z,75.85
2023-08-14T08:15:24.256Z,74.78
2023-08-14T08:17:50.798Z,74.26
2023-08-14T08:20:17.450Z,74.28
2023-08-14T08:22:44.178Z,73.71
2023-08-14T08:25:10.619Z,72.95
2023-08-14T08:27:37.097Z,72.95
2023-08-14T08:30:04.608Z,72.77
2023-08-14T08:32:31.330Z,73.41
2023-08-14T08:34:58.060Z,73.49
2023-08-14T08:37:24.644Z,74.24
2023-08-14T08:39:53.691Z,73.21
2023-08-14T08:42:21.249Z,73.58
2023-08-14T08:44:50.883Z,72.17
2023-08-14T08:47:21.869Z,68.72
2023-08-14T08:49:48.455Z,68.32
2023-08-14T08:52:16.024Z,70.15
2023-08-14T08:54:43.028Z,68.37
2023-08-14T08:57:09.880Z,68.19
2023-08-14T08:59:38.388Z,68.96
2023-08-14T09:02:04.939Z,67.55
2023-08-14T09:04:31.529Z,65.68
2023-08-14T09:06:58.271Z,63.94
2023-08-14T09:09:24.914Z,64.68
2023-08-14T09:11:51.373Z,62.76
2023-08-14T09:14:18.738Z,62.38
2023-08-14T09:16:45.719Z,60.56
2023-08-14T09:19:15.882Z,61.32
2023-08-14T09:21:44.216Z,60.22
2023-08-14T09:24:12.843Z,57.02
2023-08-14T09:26:39.399Z,59.07
2023-08-14T09:29:06.028Z,58.84
2023-08-14T09:31:35.242Z,58.64
2023-08-14T09:34:02.524Z,59.04
2023-08-14T09:36:37.832Z,59.11
2023-08-14T09:39:04.944Z,58.46
2023-08-14T09:41:32.169Z,56.49
2023-08-14T09:44:02.225Z,57.05
2023-08-14T09:46:29.436Z,57.42
2023-08-14T09:48:56.769Z,57.12
2023-08-14T09:51:23.477Z,55.75
2023-08-14T09:53:54.318Z,56.63
2023-08-14T09:56:21.731Z,56.23
2023-08-14T09:58:49.183Z,55.31
2023-08-14T10:01:17.458Z,55.32
2023-08-14T10:03:47.482Z,53.81
2023-08-14T10:06:16.424Z,53.10
2023-08-14T10:08:45.843Z,51.85
2023-08-14T10:13:47.406Z,47.88
2023-08-14T10:16:28.363Z,50.04
2023-08-14T10:18:56.695Z,48.65
2023-08-14T10:21:29.694Z,47.54
2023-08-14T10:23:57.835Z,48.48
2023-08-14T10:26:27.641Z,48.78
2023-08-14T10:28:57.305Z,49.28
2023-08-14T10:31:24.446Z,48.54
2023-08-14T10:33:51.656Z,45.07
2023-08-14T10:36:21.748Z,44.87
2023-08-14T10:41:22.129Z,46.04
2023-08-14T10:43:54.255Z,46.77
2023-08-14T10:46:21.105Z,50.37
2023-08-14T10:48:50.103Z,52.55
2023-08-14T10:51:21.377Z,53.89
2023-08-14T10:53:47.867Z,54.88
2023-08-14T10:56:14.564Z,55.62
2023-08-14T10:58:48.516Z,55.86
2023-08-14T11:01:15.997Z,56.25
2023-08-14T11:03:58.491Z,57.09
2023-08-14T11:06:29.460Z,55.72
2023-08-14T11:09:16.066Z,54.55
2023-08-14T11:11:48.733Z,52.70
2023-08-14T11:14:15.512Z,51.26
2023-08-14T11:16:42.537Z,53.50
2023-08-14T11:19:09.218Z,50.79
2023-08-14T11:21:36.144Z,50.16
2023-08-14T11:24:11.323Z,50.25
2023-08-14T11:26:37.829Z,50.00
2023-08-14T11:29:04.493Z,50.49
2023-08-14T11:31:34.979Z,51.93
2023-08-14T11:34:07.720Z,52.50
2023-08-14T11:36:34.958Z,51.76
2023-08-14T11:39:01.896Z,53.65
2023-08-14T11:43:57.759Z,53.63
2023-08-14T11:46:25.156Z,53.08
2023-08-14T11:48:51.605Z,52.79
2023-08-14T11:51:19.329Z,51.00
2023-08-14T11:53:46.221Z,49.66
2023-08-14T11:56:13.312Z,49.28
2023-08-14T11:58:40.602Z,49.22
2023-08-14T12:01:09.115Z,50.15
2023-08-14T12:03:35.710Z,46.83
2023-08-14T12:06:05.180Z,46.01
2023-08-14T12:08:31.968Z,47.12
2023-08-14T12:10:58.950Z,47.06
2023-08-14T12:13:25.401Z,45.21
2023-08-14T12:15:53.085Z,46.49
2023-08-14T12:18:24.064Z,45.83
2023-08-14T12:20:52.234Z,45.94
2023-08-14T12:23:24.353Z,46.02
2023-08-14T12:25:51.965Z,45.11
2023-08-14T12:28:19.682Z,43.95
2023-08-14T12:30:47.998Z,44.43
2023-08-14T12:33:15.344Z,44.37
2023-08-14T12:35:41.814Z,43.83
2023-08-14T12:38:08.601Z,44.17
2023-08-14T12:40:35.347Z,43.71
2023-08-14T12:43:01.983Z,43.38
2023-08-14T12:45:29.049Z,44.83
2023-08-14T12:47:55.583Z,44.08
2023-08-14T12:50:22.076Z,44.50
2023-08-14T12:52:48.541Z,44.79
2023-08-14T12:55:18.975Z,40.54
2023-08-14T12:57:47.030Z,44.47
2023-08-14T13:00:14.559Z,45.89
2023-08-14T13:02:41.053Z,46.05
2023-08-14T13:05:07.836Z,44.88
2023-08-14T13:07:34.399Z,45.09
2023-08-14T13:10:01.214Z,44.72
2023-08-14T13:12:27.752Z,45.48
2023-08-14T13:14:55.379Z,46.68
2023-08-14T13:17:22.286Z,46.10
2023-08-14T13:19:49.153Z,45.21
2023-08-14T13:22:17.097Z,47.67
2023-08-14T13:24:46.342Z,48.87
2023-08-14T13:27:12.847Z,49.10
2023-08-14T13:29:39.348Z,50.42
2023-08-14T13:32:06.301Z,49.71
2023-08-14T13:34:33.044Z,52.15
2023-08-14T13:36:59.489Z,52.27
2023-08-14T13:39:26.041Z,52.97
2023-08-14T13:41:52.677Z,53.54
2023-08-14T13:44:19.173Z,54.28
2023-08-14T13:46:45.670Z,55.58
2023-08-14T13:49:12.238Z,55.62
2023-08-14T13:51:38.797Z,57.54
2023-08-14T13:54:06.367Z,57.29
2023-08-14T13:56:32.833Z,54.98
2023-08-14T13:59:00.487Z,55.06
2023-08-14T14:01:27.709Z,55.08
2023-08-14T14:03:54.845Z,52.55
2023-08-14T14:06:21.601Z,51.04
2023-08-14T14:08:48.136Z,48.82
2023-08-14T14:11:14.830Z,48.88
2023-08-14T14:13:41.347Z,47.90
2023-08-14T14:16:08.623Z,43.33
2023-08-14T14:18:35.250Z,44.18
2023-08-14T14:21:01.722Z,43.06
2023-08-14T14:23:28.211Z,44.29
2023-08-14T14:25:54.662Z,42.55
2023-08-14T14:28:21.129Z,40.80
2023-08-14T14:30:47.587Z,41.32
2023-08-14T14:33:14.029Z,40.58
2023-08-14T14:35:40.547Z,41.24
2023-08-14T14:38:07.018Z,41.86
2023-08-14T14:40:33.490Z,40.63
2023-08-14T14:42:59.955Z,41.98
2023-08-14T14:45:34.583Z,40.72
2023-08-14T14:48:02.566Z,41.94
2023-08-14T14:50:30.682Z,40.77
2023-08-14T14:52:57.927Z,41.66
2023-08-14T14:55:27.242Z,38.23
2023-08-14T14:57:53.772Z,38.93
2023-08-14T15:00:20.313Z,39.32
2023-08-14T15:02:46.891Z,39.29
2023-08-14T15:05:25.728Z,40.09
2023-08-14T15:07:53.992Z,38.69
2023-08-14T15:10:20.609Z,38.57
2023-08-14T15:12:47.456Z,39.23
2023-08-14T15:15:14.022Z,38.19
2023-08-14T15:17:44.587Z,37.20
2023-08-14T15:20:13.089Z,36.38
2023-08-14T15:22:39.821Z,37.02
2023-08-14T15:25:08.607Z,36.67
2023-08-14T15:27:35.130Z,37.79
2023-08-14T15:30:01.610Z,36.99
2023-08-14T15:32:28.092Z,36.76
2023-08-14T15:34:54.565Z,36.88
2023-08-14T15:37:21.256Z,36.92
2023-08-14T15:39:49.769Z,36.86
2023-08-14T15:42:18.012Z,36.96
2023-08-14T15:44:44.616Z,36.51
2023-08-14T15:47:11.129Z,36.96
2023-08-14T15:49:37.579Z,36.79
2023-08-14T15:52:04.119Z,36.34
2023-08-14T15:54:46.776Z,36.30
2023-08-14T15:57:17.262Z,35.67
2023-08-14T15:59:44.110Z,35.93
2023-08-14T16:02:10.578Z,35.08
2023-08-14T16:04:37.696Z,36.25
2023-08-14T16:07:04.215Z,36.78
2023-08-14T16:09:30.736Z,34.68
2023-08-14T16:11:59.785Z,35.78
2023-08-14T16:14:26.438Z,34.87
2023-08-14T16:16:52.946Z,35.28
2023-08-14T16:19:21.793Z,35.40
2023-08-14T16:21:48.544Z,35.03
2023-08-14T16:24:15.120Z,36.99
2023-08-14T16:26:41.565Z,36.48
2023-08-14T16:29:08.017Z,36.71
2023-08-14T16:31:34.481Z,35.10
2023-08-14T16:34:00.998Z,36.37
2023-08-14T16:36:27.468Z,36.82
2023-08-14T16:38:53.972Z,39.50
2023-08-14T16:41:20.492Z,38.93
2023-08-14T16:43:46.916Z,39.01
2023-08-14T16:46:13.479Z,38.93
2023-08-14T16:48:39.934Z,39.62
2023-08-14T16:51:06.498Z,38.85
2023-08-14T16:53:32.955Z,39.21
2023-08-14T16:55:59.489Z,37.80
2023-08-14T16:58:25.972Z,36.57
2023-08-14T17:00:54.000Z,35.81
2023-08-14T17:03:20.561Z,35.98
2023-08-14T17:05:47.102Z,37.71
2023-08-14T17:08:13.577Z,38.83
2023-08-14T17:10:40.254Z,39.40
2023-08-14T17:13:06.764Z,38.24
2023-08-14T17:15:43.125Z,38.27
2023-08-14T17:18:09.640Z,39.01
2023-08-14T17:20:36.196Z,40.63
2023-08-14T17:23:02.838Z,41.60
2023-08-14T17:25:29.293Z,42.67
2023-08-14T17:27:55.727Z,41.95
2023-08-14T17:30:22.227Z,43.13
2023-08-14T17:32:53.423Z,43.20
2023-08-14T17:35:20.787Z,42.61
2023-08-14T17:37:47.471Z,43.77
2023-08-14T17:40:14.796Z,43.79
2023-08-14T17:42:41.820Z,45.06
2023-08-14T17:45:08.573Z,45.60
2023-08-14T17:47:35.313Z,45.71
2023-08-14T17:50:02.707Z,47.50
2023-08-14T17:52:29.319Z,48.66
2023-08-14T17:54:55.803Z,49.36
2023-08-14T17:57:22.452Z,49.95
2023-08-14T17:59:49.215Z,50.49
2023-08-14T18:02:15.663Z,50.75
2023-08-14T18:04:42.163Z,51.08
2023-08-14T18:07:08.620Z,51.08
2023-08-14T18:09:35.122Z,51.70
2023-08-14T18:12:01.566Z,51.88
2023-08-14T18:14:28.098Z,52.46
2023-08-14T18:16:54.570Z,53.27
2023-08-14T18:21:50.406Z,53.93
2023-08-14T18:24:17.042Z,54.47
2023-08-14T18:26:43.454Z,54.80
2023-08-14T18:29:09.999Z,55.08
2023-08-14T18:31:37.169Z,55.36
2023-08-14T18:34:03.780Z,55.74
2023-08-14T18:36:30.952Z,55.87
2023-08-14T18:38:57.491Z,56.67
2023-08-14T18:41:23.966Z,56.93
2023-08-14T18:43:50.398Z,57.78
2023-08-14T18:46:16.955Z,57.23
2023-08-14T18:48:43.470Z,57.75
2023-08-14T18:51:09.934Z,58.70
2023-08-14T18:53:36.949Z,58.92
2023-08-14T18:56:03.477Z,59.25
2023-08-14T18:58:30.096Z,58.87
2023-08-14T19:00:56.651Z,59.12
2023-08-14T19:03:23.298Z,59.42
2023-08-14T19:05:55.567Z,59.48
2023-08-14T19:08:22.014Z,60.86
2023-08-14T19:10:48.476Z,60.35
2023-08-14T19:13:14.924Z,60.84
2023-08-14T19:15:49.198Z,60.85
2023-08-14T19:18:16.720Z,61.04
2023-08-14T19:20:44.218Z,61.28
2023-08-14T19:23:11.266Z,61.44
2023-08-14T19:25:38.532Z,61.98
2023-08-14T19:28:19.395Z,62.18
2023-08-14T19:30:47.953Z,62.22
2023-08-14T19:33:14.916Z,62.35
2023-08-14T19:35:41.593Z,63.04
2023-08-14T19:38:08.048Z,62.53
2023-08-14T19:40:37.736Z,63.30
2023-08-14T19:43:04.489Z,63.35
2023-08-14T19:45:31.044Z,63.56
2023-08-14T19:47:57.558Z,63.62
2023-08-14T19:50:24.060Z,63.76
2023-08-14T19:52:50.500Z,63.79
2023-08-14T19:55:17.026Z,63.59
2023-08-14T19:57:43.483Z,63.67
2023-08-14T20:00:10.929Z,63.59
2023-08-14T20:02:37.466Z,63.88
2023-08-14T20:05:05.898Z,64.31
2023-08-14T20:07:32.577Z,64.67
2023-08-14T20:10:01.224Z,65.23
2023-08-14T20:12:27.821Z,65.39
2023-08-14T20:14:54.270Z,64.67
2023-08-14T20:17:21.006Z,64.44
2023-08-14T20:19:48.688Z,64.69
2023-08-14T20:22:15.122Z,65.20
2023-08-14T20:24:41.620Z,65.19
2023-08-14T20:27:08.837Z,65.35
2023-08-14T20:29:35.297Z,65.65
2023-08-14T20:32:02.863Z,66.00
2023-08-14T20:34:29.369Z,66.49
2023-08-14T20:36:55.801Z,66.36
2023-08-14T20:39:23.333Z,66.65
2023-08-14T20:41:49.882Z,66.73
2023-08-14T20:44:16.336Z,66.83
2023-08-14T20:46:42.860Z,67.14
2023-08-14T20:49:09.366Z,67.32
2023-08-14T20:51:35.853Z,67.99
2023-08-14T20:54:02.319Z,68.49
2023-08-14T20:56:28.841Z,68.42
2023-08-14T20:58:55.322Z,69.94
2023-08-14T21:01:21.790Z,69.65
2023-08-14T21:03:48.415Z,69.10
2023-08-14T21:06:17.187Z,69.20
2023-08-14T21:08:44.815Z,70.31
2023-08-14T21:11:11.264Z,71.39
2023-08-14T21:13:37.687Z,70.85
2023-08-14T21:16:04.380Z,70.88
2023-08-14T21:18:30.913Z,71.40
2023-08-14T21:20:57.353Z,71.11
2023-08-14T21:23:23.863Z,71.59
2023-08-14T21:25:50.438Z,71.88
2023-08-14T21:28:17.003Z,72.97
2023-08-14T21:30:43.666Z,72.54
2023-08-14T21:33:10.155Z,72.48
2023-08-14T21:35:36.665Z,72.80
2023-08-14T21:38:04.119Z,72.82
2023-08-14T21:40:30.552Z,73.67
2023-08-14T21:42:58.345Z,74.46
2023-08-14T21:45:24.833Z,73.55
2023-08-14T21:47:51.318Z,73.86
2023-08-14T21:50:17.895Z,73.78
2023-08-14T21:52:44.352Z,73.81
2023-08-14T21:55:10.788Z,73.89
2023-08-14T21:57:37.234Z,73.87
2023-08-14T22:00:05.424Z,73.68
2023-08-14T22:02:32.238Z,73.99
2023-08-14T22:04:58.725Z,74.35
2023-08-14T22:07:25.224Z,73.52
2023-08-14T22:09:51.678Z,73.47
2023-08-14T22:12:18.127Z,73.85
2023-08-14T22:14:45.140Z,73.89
2023-08-14T22:17:11.662Z,73.37
2023-08-14T22:19:38.219Z,73.22
2023-08-14T22:22:04.704Z,73.33
2023-08-14T22:24:40.664Z,74.15
2023-08-14T22:27:07.565Z,74.56
2023-08-14T22:29:34.061Z,74.45
2023-08-14T22:32:00.515Z,75.45
2023-08-14T22:34:26.984Z,75.01
2023-08-14T22:36:53.454Z,74.99
2023-08-14T22:39:19.897Z,75.17
2023-08-14T22:41:46.340Z,75.15
2023-08-14T22:44:12.787Z,74.55
2023-08-14T22:46:39.218Z,74.73
2023-08-14T22:49:05.657Z,74.68
2023-08-14T22:51:32.088Z,74.96
2023-08-14T22:53:58.554Z,74.80
2023-08-14T22:56:24.973Z,74.83
2023-08-14T22:58:51.409Z,74.50
2023-08-14T23:01:17.875Z,73.83
2023-08-14T23:03:44.480Z,73.59
2023-08-14T23:06:10.966Z,73.41
2023-08-14T23:08:37.453Z,73.67
2023-08-14T23:11:03.908Z,74.14
2023-08-14T23:13:30.347Z,74.37
2023-08-14T23:15:56.836Z,74.08
2023-08-14T23:18:23.328Z,74.51
2023-08-14T23:20:49.781Z,74.45
2023-08-14T23:23:16.220Z,74.64
2023-08-14T23:25:42.716Z,74.75
2023-08-14T23:28:09.195Z,74.46
2023-08-14T23:30:39.237Z,74.34
2023-08-14T23:33:06.922Z,74.51
2023-08-14T23:35:33.372Z,75.11
2023-08-14T23:37:59.814Z,74.68
2023-08-14T23:40:26.253Z,75.40
2023-08-14T23:42:52.702Z,74.85
2023-08-14T23:45:19.258Z,74.87
2023-08-14T23:47:45.799Z,75.11
2023-08-14T23:50:12.308Z,74.57
2023-08-14T23:52:38.740Z,74.98
2023-08-14T23:55:05.639Z,73.83
2023-08-14T23:57:32.100Z,74.46
2023-08-14T23:59:58.634Z,74.70
